Terminal Aerodrome Forecast
Issued by NWS

Home | Current Version | Previous Version | Text Only | Print | Product List | Glossary Off
Versions: 1 2 3 4 5 6 7 8 9 10 11 12 13 14

000
FTUS43 KIWX 242300
TAFSBN
TAF
KSBN 242335Z 2500/2524 33009KT P6SM SKC
     FM250200 00000KT P6SM SKC
     FM251400 20009KT P6SM SCT100 BKN200=

USA.gov is the U.S. government's official web portal to all federal, state and local government web resources and services.